Terminal Aerodrome Forecast
Issued by NWS Jacksonville, FL

Home | Current Version | Previous Version | Text Only | Print | Product List | Glossary On
Versions: 1 2 3 4 5 6 7 8 9 10 11 12 13 14 15
673
FTUS42 KJAX 191234 AAB
TAFJAX
TAF AMD
KJAX 191234Z 1913/2012 24007KT P6SM SCT006 SCT250 WS010/28032KT
      TEMPO 1913/1914 BKN006
     FM191400 25011KT P6SM SCT010 SCT250
     FM191600 25012G22KT P6SM FEW040 SCT250
     FM192300 29007KT P6SM SCT040 BKN250
     FM200600 02012G20KT P6SM SCT040 BKN250=

USA.gov is the U.S. government's official web portal to all federal, state and local government web resources and services.